This is the latest recevied weather packets stored in our database for station/object KJ7BRE-1. If no packets are shown the sender has not sent any weather packets the latest 10 day(s).
| Time | Temp. | Humidity | Pressure | Rain* | Wind** | Luminosity | Snow |
|---|---|---|---|---|---|---|---|
| 1777667749 | 21.67° C | 51% | 1009.8 hPa | 0 mm | - | - | - |
| 1777667447 | 21.11° C | 50% | 1009.8 hPa | 0 mm | - | - | - |
| 1777667146 | 21.11° C | 52% | 1010.2 hPa | 0 mm | - | - | - |
| 1777666845 | 21.11° C | 51% | 1009.8 hPa | 0 mm | - | - | - |
| 1777666544 | 21.11° C | 53% | 1010.2 hPa | 0 mm | - | - | - |
| 1777666243 | 20° C | 54% | 1010.2 hPa | 0 mm | - | - | - |
| 1777665941 | 20° C | 53% | 1010.2 hPa | 0 mm | - | - | - |
| 1777665640 | 20.56° C | 53% | 1010.2 hPa | 0 mm | - | - | - |
| 1777665339 | 21.11° C | 51% | 1010.2 hPa | 0 mm | - | - | - |
| 1777665038 | 21.11° C | 51% | 1010.2 hPa | 0 mm | - | - | - |
| 1777664737 | 21.11° C | 53% | 1010.2 hPa | 0 mm | - | - | - |
| 1777664435 | 20.56° C | 55% | 1010.2 hPa | 0 mm | - | - | - |
| 1777664134 | 20° C | 54% | 1010.2 hPa | 0 mm | - | - | - |
| 1777663833 | 20° C | 53% | 1010.2 hPa | 0 mm | - | - | - |
| 1777663532 | 20° C | 53% | 1010.2 hPa | 0 mm | - | - | - |
| 1777663230 | 20.56° C | 54% | 1010.2 hPa | 0 mm | - | - | - |
| 1777662929 | 20° C | 53% | 1010.5 hPa | 0 mm | - | - | - |
| 1777662628 | 21.11° C | 51% | 1010.5 hPa | 0 mm | - | - | - |
| 1777662327 | 20° C | 53% | 1010.2 hPa | 0 mm | - | - | - |
| 1777662026 | 19.44° C | 55% | 1010.5 hPa | 0 mm | - | - | - |
| 1777661724 | 19.44° C | 55% | 1010.5 hPa | 0 mm | - | - | - |
| 1777661423 | 19.44° C | 56% | 1010.8 hPa | 0 mm | - | - | - |
| 1777661122 | 19.44° C | 57% | 1010.8 hPa | 0 mm | - | - | - |
| 1777660821 | 20° C | 55% | 1010.8 hPa | 0 mm | - | - | - |
| 1777660218 | 18.33° C | 59% | 1010.8 hPa | 0 mm | - | - | - |
* Rain latest hour (hover to see other rain measurements)
** Current wind speed in m/s (hover to see current wind gust speed)